• Join FlightAware (Why Join?)
  • Login
  • US Flag 
11:48PM EDT


 

Airport Tracker/Info


-or-


 

Live Flight TrackerFlight Track Log ✈ ASQ4231 ✈ 19-Jul-2013 ✈ MMSD / SJD - KIAH

Flight Track Log - Related Links

Times and Time Zones

All times are in EDT time to prevent confusion due to time zone crossing. See the ASQ4231 flight status page for this flight to view local times or setup timezone preferences in your user account.

Time Position Orientation Groundspeed Altitude Reporting Facility
EDT Latitude Longitude Course Direction KTS MPH feet Rate Location/Type
04:32PM 23.2894 -109.4423 62° Northeast  Level FlightAware Approximate
04:33PM 23.3351 -109.3493 62° Northeast  Level FlightAware Approximate
04:34PM 23.3808 -109.2562 62° Northeast  Level FlightAware Approximate
04:35PM 23.4265 -109.1630 62° Northeast  Level FlightAware Approximate
04:36PM 23.4720 -109.0698 62° Northeast  Level FlightAware Approximate
04:37PM 23.5175 -108.9765 62° Northeast  Level FlightAware Approximate
04:38PM 23.5630 -108.8831 62° Northeast  Level FlightAware Approximate
04:39PM 23.6084 -108.7897 62° Northeast  Level FlightAware Approximate
04:40PM 23.6538 -108.6962 62° Northeast  Level FlightAware Approximate
04:41PM 23.6991 -108.6027 62° Northeast  Level FlightAware Approximate
04:42PM 23.7443 -108.5091 62° Northeast  Level FlightAware Approximate
04:43PM 23.7895 -108.4154 62° Northeast  Level FlightAware Approximate
04:44PM 23.8346 -108.3216 62° Northeast  Level FlightAware Approximate
04:45PM 23.8797 -108.2278 62° Northeast  Level FlightAware Approximate
04:46PM 23.9247 -108.1339 62° Northeast  Level FlightAware Approximate
04:47PM 23.9697 -108.0400 62° Northeast  Level FlightAware Approximate
04:48PM 24.0146 -107.9460 62° Northeast  Level FlightAware Approximate
04:49PM 24.0594 -107.8519 62° Northeast  Level FlightAware Approximate
04:50PM 24.1042 -107.7578 62° Northeast  Level FlightAware Approximate
04:51PM 24.1489 -107.6636 62° Northeast  Level FlightAware Approximate
04:52PM 24.1936 -107.5693 63° Northeast  Level FlightAware Approximate
04:53PM 24.2382 -107.4750 63° Northeast  Level FlightAware Approximate
04:54PM 24.2806 -107.3859 62° Northeast  Level FlightAware Approximate
04:55PM 24.3256 -107.2917 62° Northeast  Level FlightAware Approximate
04:56PM 24.3705 -107.1975 62° Northeast  Level FlightAware Approximate
04:57PM 24.4154 -107.1031 62° Northeast  Level FlightAware Approximate
04:58PM 24.4601 -107.0088 62° Northeast  Level FlightAware Approximate
04:59PM 24.5049 -106.9143 62° Northeast  Level FlightAware Approximate
05:00PM 24.5496 -106.8198 63° Northeast  Level FlightAware Approximate
05:01PM 24.5942 -106.7252 63° Northeast  Level FlightAware Approximate
05:02PM 24.6387 -106.6305 63° Northeast  Level FlightAware Approximate
05:03PM 24.6832 -106.5358 63° Northeast  Level FlightAware Approximate
05:04PM 24.7277 -106.4410 63° Northeast  Level FlightAware Approximate
05:05PM 24.7722 -106.3462 63° Northeast  Level FlightAware Approximate
05:06PM 24.8167 -106.2513 63° Northeast  Level FlightAware Approximate
05:07PM 24.8611 -106.1564 63° Northeast  Level FlightAware Approximate
05:08PM 24.9054 -106.0614 63° Northeast  Level FlightAware Approximate
05:09PM 24.9496 -105.9663 63° Northeast  Level FlightAware Approximate
05:10PM 24.9938 -105.8712 63° Northeast  Level FlightAware Approximate
05:11PM 25.0380 -105.7759 63° Northeast  Level FlightAware Approximate
05:12PM 25.0820 -105.6807 63° Northeast  Level FlightAware Approximate
05:13PM 25.1260 -105.5853 63° Northeast  Level FlightAware Approximate
05:14PM 25.1709 -105.4904 62° Northeast  Level FlightAware Approximate
05:15PM 25.2167 -105.3960 62° Northeast  Level FlightAware Approximate
05:16PM 25.2625 -105.3016 62° Northeast  Level FlightAware Approximate
05:17PM 25.3082 -105.2071 62° Northeast  Level FlightAware Approximate
05:18PM 25.3538 -105.1125 62° Northeast  Level FlightAware Approximate
05:19PM 25.3994 -105.0179 62° Northeast  Level FlightAware Approximate
05:20PM 25.4427 -104.9218 64° Northeast  Level FlightAware Approximate
05:21PM 25.4858 -104.8257 64° Northeast  Level FlightAware Approximate
05:22PM 25.5289 -104.7295 64° Northeast  Level FlightAware Approximate
05:23PM 25.5719 -104.6332 64° Northeast  Level FlightAware Approximate
05:24PM 25.6148 -104.5369 64° Northeast  Level FlightAware Approximate
05:25PM 25.6577 -104.4405 64° Northeast  Level FlightAware Approximate
05:26PM 25.7006 -104.3441 64° Northeast  Level FlightAware Approximate
05:27PM 25.7433 -104.2476 64° Northeast  Level FlightAware Approximate
05:28PM 25.7860 -104.1509 64° Northeast  Level FlightAware Approximate
05:29PM 25.8287 -104.0543 64° Northeast  Level FlightAware Approximate
05:30PM 25.8712 -103.9575 64° Northeast  Level FlightAware Approximate
05:31PM 25.9137 -103.8607 64° Northeast  Level FlightAware Approximate
05:32PM 25.9562 -103.7638 64° Northeast  Level FlightAware Approximate
05:33PM 25.9986 -103.6669 64° Northeast  Level FlightAware Approximate
05:34PM 26.0409 -103.5699 64° Northeast  Level FlightAware Approximate
05:35PM 26.0831 -103.4728 64° Northeast  Level FlightAware Approximate
05:36PM 26.1253 -103.3756 64° Northeast  Level FlightAware Approximate
05:37PM 26.1674 -103.2784 64° Northeast  Level FlightAware Approximate
05:38PM 26.2095 -103.1811 64° Northeast  Level FlightAware Approximate
05:39PM 26.2515 -103.0837 64° Northeast  Level FlightAware Approximate
05:40PM 26.2934 -102.9863 64° Northeast  Level FlightAware Approximate
05:41PM 26.3353 -102.8888 64° Northeast  Level FlightAware Approximate
05:42PM 26.3771 -102.7912 64° Northeast  Level FlightAware Approximate
05:43PM 26.4188 -102.6936 64° Northeast  Level FlightAware Approximate
05:44PM 26.4604 -102.5958 65° Northeast  Level FlightAware Approximate
05:45PM 26.5020 -102.4980 65° Northeast  Level FlightAware Approximate
05:46PM 26.5436 -102.4002 65° Northeast  Level FlightAware Approximate
05:47PM 26.5850 -102.3022 65° Northeast  Level FlightAware Approximate
05:48PM 26.6264 -102.2042 65° Northeast  Level FlightAware Approximate
05:49PM 26.6677 -102.1061 65° Northeast  Level FlightAware Approximate
05:50PM 26.7090 -102.0080 65° Northeast  Level FlightAware Approximate
05:51PM 26.7512 -101.9103 63° Northeast  Level FlightAware Approximate
05:52PM 26.7948 -101.8134 63° Northeast  Level FlightAware Approximate
05:53PM 26.8384 -101.7164 63° Northeast  Level FlightAware Approximate
05:54PM 26.8819 -101.6193 63° Northeast  Level FlightAware Approximate
05:55PM 26.9253 -101.5221 63° Northeast  Level FlightAware Approximate
05:56PM 26.9613 -101.4217 74° East  Level FlightAware Approximate
05:57PM 26.9874 -101.3170 74° East  Level FlightAware Approximate
05:58PM 27.0136 -101.2122 74° East  Level FlightAware Approximate
05:59PM 27.0396 -101.1075 74° East  Level FlightAware Approximate
06:00PM 27.0656 -101.0026 74° East  Level FlightAware Approximate
06:01PM 27.0915 -100.8977 74° East  Level FlightAware Approximate
06:02PM 27.1173 -100.7928 75° East  Level FlightAware Approximate
06:03PM 27.1430 -100.6878 75° East  Level FlightAware Approximate
06:03PM 27.2283 -100.4128 74° East 463 533 37,000  Level Houston Center
06:04PM 27.1687 -100.5828 75° East  Level FlightAware Approximate
06:04PM 27.2625 -100.2733 75° East 463 533 37,000  Level Houston Center
06:05PM 27.1943 -100.4777 75° East  Level FlightAware Approximate
06:05PM 27.2981 -100.1347 74° East 463 533 37,000  Level Houston Center
06:06PM 27.2198 -100.3726 75° East  Level FlightAware Approximate
06:06PM 27.3325 -99.9961 74° East 461 531 37,000  Level Houston Center
06:07PM 27.2462 -100.2677 74° East  Level FlightAware Approximate
06:07PM 27.3669 -99.8575 74° East 460 529 37,000  Level Houston Center
06:08PM 27.2735 -100.1631 74° East  Level FlightAware Approximate
06:08PM 27.4008 -99.7206 74° East 456 525 37,000  Level Houston Center
06:09PM 27.3008 -100.0585 74° East  Level FlightAware Approximate
06:10PM 27.3280 -99.9538 74° East  Level FlightAware Approximate
06:10PM 27.4783 -99.4178 74° East 458 527 37,000  Level Houston Center
06:11PM 27.5103 -99.2775 76° East 461 531 37,000  Level Houston Center
06:12PM 27.5419 -99.1369 76° East 460 529 37,000 -60 Level Houston Center
06:13PM 27.5964 -98.9903 67° East 464 534 36,900  Descending Houston Center
06:14PM 27.6950 -98.9267 30° Northeast 450 518 37,000  Climbing Houston Center
06:15PM 27.8117 -98.8986 12° North 434 499 37,000  Level Houston Center
06:16PM 27.9294 -98.8706 12° North 432 497 37,000  Level Houston Center
06:17PM 28.0475 -98.8431 12° North 433 498 37,000  Level Houston Center
06:19PM 28.1908 -98.8097 12° North 437 503 37,000 -60 Level Houston Center
06:20PM 28.3100 -98.7814 12° North 438 504 36,900  Descending Houston Center
06:21PM 28.4297 -98.7528 12° North 440 506 37,000  Climbing Houston Center
06:22PM 28.5486 -98.7247 12° North 436 502 37,000  Level Houston Center
06:23PM 28.6678 -98.6961 12° North 436 502 37,000  Level Houston Center
06:24PM 28.8022 -98.6639 12° North 433 498 37,000  Level Houston Center
06:25PM 28.9294 -98.6336 12° North 432 497 37,000  Level Houston Center
06:26PM 29.0464 -98.6056 12° North 431 496 37,000  Level Houston Center
06:27PM 29.1631 -98.5775 12° North 428 493 37,000  Level Houston Center
06:28PM 29.2889 -98.5472 12° North 428 493 37,000  Level Houston Center
06:29PM 29.4053 -98.5181 12° North 427 491 37,000  Level Houston Center
06:30PM 29.5261 -98.4903 11° North 448 516 37,000  Level Houston Center
06:31PM 29.6425 -98.4611 12° North 436 502 37,000  Level Houston Center
06:32PM 29.7722 -98.4278 13° North 423 487 37,000  Level Houston Center
06:33PM 29.8883 -98.3969 13° North 427 491 37,000  Level Houston Center
06:34PM 30.0133 -98.3653 12° North 428 493 37,000 -300 Level Houston Center
06:35PM 30.1300 -98.3353 13° North 429 494 36,400 -1,140 Descending Houston Center
06:36PM 30.2564 -98.3058 11° North 429 494 34,700 -1,500 Descending Houston Center
06:37PM 30.3631 -98.2803 12° North 437 503 33,300 -1,500 Descending Houston Center
06:38PM 30.4869 -98.2547 10° North 444 511 31,700 -1,500 Descending Houston Center
06:39PM 30.6103 -98.2303 10° North 443 510 30,300 -1,200 Descending Houston Center
06:40PM 30.7242 -98.1769 22° Northeast 444 511 29,300 -660 Descending Houston Center
06:41PM 30.7731 -98.0161 70° East 465 535 29,000 -180 Descending Houston Center
06:42PM 30.7794 -97.8661 87° East 461 531 29,000  Level Houston Center
06:43PM 30.7850 -97.7153 88° East 462 532 29,000  Level Houston Center
06:44PM 30.7894 -97.5656 88° East 462 532 29,000 -360 Level Houston Center
06:46PM 30.7714 -97.4196 98° East  Level FlightAware Approximate
06:46PM 30.7975 -97.2689 98° East 465 535 28,000  Level Houston Center
06:47PM 30.7703 -97.0942 100° East 483 556 26,200 -1,680 Descending Houston Center
06:48PM 30.7339 -96.9497 106° East 462 532 24,600 -1,560 Descending Houston Center
06:49PM 30.6969 -96.8069 107° East 459 528 23,000 -1,860 Descending Houston Center
06:51PM 30.7311 -96.6837 72° East  Level FlightAware Approximate
06:53PM 30.5936 -96.3989 139° Southeast 430 495 17,100  Level Houston Center
06:55PM 30.4812 -96.2016 123° Southeast  Level Estimated
06:55PM 30.5000 -96.0417 123° Southeast 394 453 11,300  Level Houston Center
06:56PM 30.4689 -95.9217 107° East 368 423 10,100 -900 Descending Houston Center
06:57PM 30.4233 -95.8350 121° Southeast 291 335 9,500 -900 Descending Houston Center
06:58PM 30.5657 -95.9823 139° Southeast  Level FlightAware Approximate
06:58PM 30.3494 -95.8047 161° South 283 326 8,300  Level Houston Center
06:59PM 30.2800 -95.7550 148° Southeast 284 327 6,700 -1,320 Descending Houston Center
07:00PM 30.2144 -95.7022 145° Southeast 274 315 5,700 -1,020 Descending Houston Center
07:01PM 30.1617 -95.6503 140° Southeast 271 312 4,800 -1,080 Descending Houston Center
07:02PM 30.1100 -95.5911 135° Southeast 262 302 3,700 -1,140 Descending Houston Center
07:03PM 30.0586 -95.5322 135° Southeast 259 298 2,500 -1,200 Descending Houston Center